sensor_id;sensor_type;location;lat;lon;timestamp;pressure;altitude;pressure_sealevel;temperature;humidity
30021;BME280;16861;52.294;7.760;2023-02-22T00:01:13;99820.50;;;11.18;78.08
30021;BME280;16861;52.294;7.760;2023-02-22T00:03:58;99824.72;;;11.21;78.68
30021;BME280;16861;52.294;7.760;2023-02-22T00:06:25;99816.00;;;11.20;78.71
30021;BME280;16861;52.294;7.760;2023-02-22T00:08:51;99822.97;;;11.21;78.63
30021;BME280;16861;52.294;7.760;2023-02-22T00:11:18;99824.72;;;11.21;78.57
30021;BME280;16861;52.294;7.760;2023-02-22T00:13:46;99816.81;;;11.21;78.66
30021;BME280;16861;52.294;7.760;2023-02-22T00:16:17;99816.81;;;11.21;78.18
30021;BME280;16861;52.294;7.760;2023-02-22T00:18:44;99810.53;;;11.24;78.47
30021;BME280;16861;52.294;7.760;2023-02-22T00:21:12;99812.34;;;11.23;78.41
30021;BME280;16861;52.294;7.760;2023-02-22T00:23:42;99800.09;;;11.22;78.36
30021;BME280;16861;52.294;7.760;2023-02-22T00:26:16;99803.56;;;11.23;78.20
30021;BME280;16861;52.294;7.760;2023-02-22T00:28:49;99805.38;;;11.22;78.08
30021;BME280;16861;52.294;7.760;2023-02-22T00:31:16;99804.44;;;11.23;78.54
30021;BME280;16861;52.294;7.760;2023-02-22T00:33:44;99799.16;;;11.23;78.40
30021;BME280;16861;52.294;7.760;2023-02-22T00:36:12;99799.16;;;11.23;78.46
30021;BME280;16861;52.294;7.760;2023-02-22T00:38:40;99789.56;;;11.22;78.40
30021;BME280;16861;52.294;7.760;2023-02-22T00:41:07;99790.41;;;11.23;78.64
30021;BME280;16861;52.294;7.760;2023-02-22T00:43:34;99796.63;;;11.21;78.56
30021;BME280;16861;52.294;7.760;2023-02-22T00:46:01;99788.63;;;11.23;78.55
30021;BME280;16861;52.294;7.760;2023-02-22T00:48:27;99780.81;;;11.21;78.62
30021;BME280;16861;52.294;7.760;2023-02-22T00:50:54;99787.75;;;11.23;78.46
30021;BME280;16861;52.294;7.760;2023-02-22T00:53:23;99780.88;;;11.20;78.24
30021;BME280;16861;52.294;7.760;2023-02-22T00:55:50;99780.06;;;11.19;78.41
30021;BME280;16861;52.294;7.760;2023-02-22T00:58:17;99777.50;;;11.18;78.39
30021;BME280;16861;52.294;7.760;2023-02-22T01:00:44;99779.19;;;11.19;78.44
30021;BME280;16861;52.294;7.760;2023-02-22T01:03:12;99767.06;;;11.16;78.50
30021;BME280;16861;52.294;7.760;2023-02-22T01:05:40;99775.78;;;11.17;78.51
30021;BME280;16861;52.294;7.760;2023-02-22T01:08:08;99765.38;;;11.15;78.42
30021;BME280;16861;52.294;7.760;2023-02-22T01:10:36;99769.69;;;11.16;78.57
30021;BME280;16861;52.294;7.760;2023-02-22T01:13:03;99764.50;;;11.15;78.46
30021;BME280;16861;52.294;7.760;2023-02-22T01:15:35;99771.47;;;11.16;78.51
30021;BME280;16861;52.294;7.760;2023-02-22T01:18:02;99767.22;;;11.13;78.34
30021;BME280;16861;52.294;7.760;2023-02-22T01:20:30;99761.09;;;11.13;78.54
30021;BME280;16861;52.294;7.760;2023-02-22T01:22:59;99764.59;;;11.13;78.52
30021;BME280;16861;52.294;7.760;2023-02-22T01:25:28;99756.88;;;11.10;78.44
30021;BME280;16861;52.294;7.760;2023-02-22T01:27:55;99755.94;;;11.11;78.44
30021;BME280;16861;52.294;7.760;2023-02-22T01:30:25;99757.81;;;11.09;78.38
30021;BME280;16861;52.294;7.760;2023-02-22T01:32:53;99744.72;;;11.07;78.36
30021;BME280;16861;52.294;7.760;2023-02-22T01:35:24;99742.19;;;11.06;78.27
30021;BME280;16861;52.294;7.760;2023-02-22T01:37:52;99745.59;;;11.08;78.01
30021;BME280;16861;52.294;7.760;2023-02-22T01:40:24;99744.66;;;11.09;78.21
30021;BME280;16861;52.294;7.760;2023-02-22T01:42:53;99736.81;;;11.07;78.18
30021;BME280;16861;52.294;7.760;2023-02-22T01:45:36;99730.91;;;11.04;78.03
30021;BME280;16861;52.294;7.760;2023-02-22T01:48:07;99722.13;;;11.03;78.43
30021;BME280;16861;52.294;7.760;2023-02-22T01:50:38;99712.63;;;11.01;78.30
30021;BME280;16861;52.294;7.760;2023-02-22T01:53:07;99723.09;;;11.02;78.47
30021;BME280;16861;52.294;7.760;2023-02-22T01:55:34;99717.81;;;11.02;78.38
30021;BME280;16861;52.294;7.760;2023-02-22T01:58:03;99701.44;;;10.97;78.20
30021;BME280;16861;52.294;7.760;2023-02-22T02:00:30;99712.06;;;10.95;78.29
30021;BME280;16861;52.294;7.760;2023-02-22T02:03:02;99707.06;;;10.91;78.16
30021;BME280;16861;52.294;7.760;2023-02-22T02:05:30;99712.34;;;10.91;78.45
30021;BME280;16861;52.294;7.760;2023-02-22T02:08:04;99711.59;;;10.89;78.36
30021;BME280;16861;52.294;7.760;2023-02-22T02:10:35;99707.19;;;10.89;78.66
30021;BME280;16861;52.294;7.760;2023-02-22T02:13:02;99700.09;;;10.90;78.65
30021;BME280;16861;52.294;7.760;2023-02-22T02:15:32;99695.03;;;10.87;78.34
30021;BME280;16861;52.294;7.760;2023-02-22T02:18:01;99699.38;;;10.88;78.40
30021;BME280;16861;52.294;7.760;2023-02-22T02:20:46;99702.19;;;10.85;78.00
30021;BME280;16861;52.294;7.760;2023-02-22T02:37:10;99685.34;;;10.87;78.02
30021;BME280;16861;52.294;7.760;2023-02-22T02:39:51;99687.31;;;10.84;77.87
30021;BME280;16861;52.294;7.760;2023-02-22T02:42:24;99678.47;;;10.85;78.16
30021;BME280;16861;52.294;7.760;2023-02-22T02:45:10;99689.97;;;10.84;78.01
30021;BME280;16861;52.294;7.760;2023-02-22T02:47:44;99679.50;;;10.82;77.83
30021;BME280;16861;52.294;7.760;2023-02-22T02:50:27;99683.19;;;10.79;77.70
30021;BME280;16861;52.294;7.760;2023-02-22T02:52:58;99673.28;;;10.83;78.01
30021;BME280;16861;52.294;7.760;2023-02-22T02:55:28;99666.44;;;10.80;77.81
30021;BME280;16861;52.294;7.760;2023-02-22T02:57:55;99664.75;;;10.79;77.84
30021;BME280;16861;52.294;7.760;2023-02-22T03:00:25;99657.03;;;10.76;77.42
30021;BME280;16861;52.294;7.760;2023-02-22T03:12:03;99655.56;;;10.56;76.31
30021;BME280;16861;52.294;7.760;2023-02-22T03:17:26;99655.16;;;10.48;76.03
30021;BME280;16861;52.294;7.760;2023-02-22T03:20:00;99644.97;;;10.41;76.07
30021;BME280;16861;52.294;7.760;2023-02-22T03:22:32;99643.53;;;10.36;76.12
30021;BME280;16861;52.294;7.760;2023-02-22T03:25:07;99638.63;;;10.29;76.11
30021;BME280;16861;52.294;7.760;2023-02-22T03:27:42;99645.94;;;10.24;75.97
30021;BME280;16861;52.294;7.760;2023-02-22T03:30:20;99642.72;;;10.19;75.86
30021;BME280;16861;52.294;7.760;2023-02-22T03:32:52;99632.56;;;10.13;75.96
30021;BME280;16861;52.294;7.760;2023-02-22T03:35:24;99632.91;;;10.07;76.19
30021;BME280;16861;52.294;7.760;2023-02-22T03:37:56;99632.25;;;10.03;76.11
30021;BME280;16861;52.294;7.760;2023-02-22T03:40:30;99635.13;;;9.98;76.09
30021;BME280;16861;52.294;7.760;2023-02-22T03:43:03;99632.78;;;9.94;76.09
30021;BME280;16861;52.294;7.760;2023-02-22T03:45:32;99637.34;;;9.90;76.72
30021;BME280;16861;52.294;7.760;2023-02-22T03:48:13;99635.06;;;9.84;76.84
30021;BME280;16861;52.294;7.760;2023-02-22T03:50:42;99630.66;;;9.84;77.61
30021;BME280;16861;52.294;7.760;2023-02-22T03:53:09;99620.22;;;9.83;78.03
30021;BME280;16861;52.294;7.760;2023-02-22T03:55:36;99616.66;;;9.84;78.46
30021;BME280;16861;52.294;7.760;2023-02-22T03:58:06;99628.88;;;9.85;78.49
30021;BME280;16861;52.294;7.760;2023-02-22T04:00:34;99613.88;;;9.87;78.72
30021;BME280;16861;52.294;7.760;2023-02-22T04:03:01;99610.28;;;9.88;79.10
30021;BME280;16861;52.294;7.760;2023-02-22T04:05:28;99609.19;;;9.92;79.14
30021;BME280;16861;52.294;7.760;2023-02-22T04:07:55;99612.56;;;9.94;79.48
30021;BME280;16861;52.294;7.760;2023-02-22T04:10:23;99608.00;;;9.98;79.77
30021;BME280;16861;52.294;7.760;2023-02-22T04:12:50;99611.19;;;10.03;80.10
30021;BME280;16861;52.294;7.760;2023-02-22T04:15:20;99605.88;;;10.04;79.83
30021;BME280;16861;52.294;7.760;2023-02-22T04:17:47;99601.19;;;10.10;79.99
30021;BME280;16861;52.294;7.760;2023-02-22T04:20:14;99598.25;;;10.14;80.20
30021;BME280;16861;52.294;7.760;2023-02-22T04:22:45;99600.63;;;10.19;80.10
30021;BME280;16861;52.294;7.760;2023-02-22T04:25:13;99604.00;;;10.21;79.99
30021;BME280;16861;52.294;7.760;2023-02-22T04:27:39;99600.28;;;10.25;79.91
30021;BME280;16861;52.294;7.760;2023-02-22T04:30:06;99598.41;;;10.27;80.07
30021;BME280;16861;52.294;7.760;2023-02-22T04:32:33;99593.81;;;10.31;79.80
30021;BME280;16861;52.294;7.760;2023-02-22T04:34:59;99590.16;;;10.34;79.88
30021;BME280;16861;52.294;7.760;2023-02-22T04:37:26;99593.56;;;10.36;79.76
30021;BME280;16861;52.294;7.760;2023-02-22T04:39:52;99591.66;;;10.38;79.61
30021;BME280;16861;52.294;7.760;2023-02-22T04:42:19;99593.38;;;10.39;79.60
30021;BME280;16861;52.294;7.760;2023-02-22T04:44:45;99591.41;;;10.42;79.17
30021;BME280;16861;52.294;7.760;2023-02-22T04:47:12;99594.88;;;10.43;79.26
30021;BME280;16861;52.294;7.760;2023-02-22T04:49:38;99592.22;;;10.43;79.28
30021;BME280;16861;52.294;7.760;2023-02-22T04:52:04;99600.06;;;10.45;79.12
30021;BME280;16861;52.294;7.760;2023-02-22T04:54:31;99596.53;;;10.46;78.92
30021;BME280;16861;52.294;7.760;2023-02-22T04:56:57;99592.09;;;10.46;78.98
30021;BME280;16861;52.294;7.760;2023-02-22T04:59:24;99590.41;;;10.45;79.18
30021;BME280;16861;52.294;7.760;2023-02-22T05:01:50;99586.81;;;10.46;79.13
30021;BME280;16861;52.294;7.760;2023-02-22T05:04:17;99586.75;;;10.48;79.17
30021;BME280;16861;52.294;7.760;2023-02-22T05:06:43;99586.66;;;10.49;79.04
30021;BME280;16861;52.294;7.760;2023-02-22T05:12:57;99579.50;;;10.51;78.34
30021;BME280;16861;52.294;7.760;2023-02-22T05:15:24;99585.72;;;10.50;78.59
30021;BME280;16861;52.294;7.760;2023-02-22T05:17:51;99587.59;;;10.48;78.71
30021;BME280;16861;52.294;7.760;2023-02-22T05:20:30;99573.75;;;10.45;78.30
30021;BME280;16861;52.294;7.760;2023-02-22T05:22:58;99578.00;;;10.47;78.68
30021;BME280;16861;52.294;7.760;2023-02-22T05:25:26;99573.69;;;10.46;78.77
30021;BME280;16861;52.294;7.760;2023-02-22T05:27:58;99579.03;;;10.45;78.51
30021;BME280;16861;52.294;7.760;2023-02-22T05:30:31;99586.81;;;10.46;78.57
30021;BME280;16861;52.294;7.760;2023-02-22T05:32:58;99576.22;;;10.48;78.93
30021;BME280;16861;52.294;7.760;2023-02-22T05:35:26;99570.94;;;10.48;78.69
30021;BME280;16861;52.294;7.760;2023-02-22T05:37:54;99574.44;;;10.48;78.53
30021;BME280;16861;52.294;7.760;2023-02-22T05:40:23;99575.47;;;10.46;78.42
30021;BME280;16861;52.294;7.760;2023-02-22T05:42:51;99569.34;;;10.45;78.51
30021;BME280;16861;52.294;7.760;2023-02-22T05:45:19;99561.59;;;10.42;78.57
30021;BME280;16861;52.294;7.760;2023-02-22T05:47:46;99566.88;;;10.42;78.76
30021;BME280;16861;52.294;7.760;2023-02-22T05:50:14;99559.91;;;10.41;78.41
30021;BME280;16861;52.294;7.760;2023-02-22T05:52:41;99555.59;;;10.40;78.62
30021;BME280;16861;52.294;7.760;2023-02-22T05:55:09;99564.44;;;10.39;78.41
30021;BME280;16861;52.294;7.760;2023-02-22T05:57:35;99559.19;;;10.39;78.56
30021;BME280;16861;52.294;7.760;2023-02-22T06:00:06;99554.09;;;10.36;78.01
30021;BME280;16861;52.294;7.760;2023-02-22T06:02:33;99549.78;;;10.35;78.23
30021;BME280;16861;52.294;7.760;2023-02-22T06:04:59;99555.13;;;10.33;78.20
30021;BME280;16861;52.294;7.760;2023-02-22T06:07:26;99557.84;;;10.32;78.11
30021;BME280;16861;52.294;7.760;2023-02-22T06:09:53;99557.06;;;10.29;78.22
30021;BME280;16861;52.294;7.760;2023-02-22T06:12:19;99558.00;;;10.28;77.92
30021;BME280;16861;52.294;7.760;2023-02-22T06:14:46;99552.84;;;10.27;78.06
30021;BME280;16861;52.294;7.760;2023-02-22T06:17:14;99556.59;;;10.23;77.76
30021;BME280;16861;52.294;7.760;2023-02-22T06:19:40;99555.75;;;10.22;77.62
30021;BME280;16861;52.294;7.760;2023-02-22T06:22:07;99557.63;;;10.20;77.74
30021;BME280;16861;52.294;7.760;2023-02-22T06:24:37;99565.72;;;10.17;77.37
30021;BME280;16861;52.294;7.760;2023-02-22T06:27:03;99563.25;;;10.14;77.76
30021;BME280;16861;52.294;7.760;2023-02-22T06:29:30;99570.38;;;10.12;77.74
30021;BME280;16861;52.294;7.760;2023-02-22T06:31:56;99571.31;;;10.11;77.89
30021;BME280;16861;52.294;7.760;2023-02-22T06:34:23;99560.94;;;10.08;77.74
30021;BME280;16861;52.294;7.760;2023-02-22T06:36:50;99558.44;;;10.06;77.94
30021;BME280;16861;52.294;7.760;2023-02-22T06:39:16;99555.91;;;10.04;77.87
30021;BME280;16861;52.294;7.760;2023-02-22T06:41:45;99555.13;;;10.02;77.66
30021;BME280;16861;52.294;7.760;2023-02-22T06:44:13;99561.41;;;10.00;77.80
30021;BME280;16861;52.294;7.760;2023-02-22T06:46:46;99560.75;;;9.96;77.61
30021;BME280;16861;52.294;7.760;2023-02-22T06:49:13;99558.94;;;9.97;77.91
30021;BME280;16861;52.294;7.760;2023-02-22T06:51:40;99559.81;;;9.97;78.12
30021;BME280;16861;52.294;7.760;2023-02-22T06:54:06;99561.56;;;9.97;78.34
30021;BME280;16861;52.294;7.760;2023-02-22T06:56:33;99558.13;;;9.96;77.97
30021;BME280;16861;52.294;7.760;2023-02-22T06:58:59;99559.88;;;9.96;78.37
30021;BME280;16861;52.294;7.760;2023-02-22T07:01:28;99556.44;;;9.95;78.27
30021;BME280;16861;52.294;7.760;2023-02-22T07:03:55;99556.44;;;9.95;78.28
30021;BME280;16861;52.294;7.760;2023-02-22T07:06:21;99561.56;;;9.97;78.34
30021;BME280;16861;52.294;7.760;2023-02-22T07:08:48;99556.31;;;9.97;78.23
30021;BME280;16861;52.294;7.760;2023-02-22T07:11:16;99560.66;;;9.98;78.25
30021;BME280;16861;52.294;7.760;2023-02-22T07:13:43;99555.41;;;9.98;78.20
30021;BME280;16861;52.294;7.760;2023-02-22T07:16:11;99554.47;;;9.99;78.04
30021;BME280;16861;52.294;7.760;2023-02-22T07:18:38;99551.84;;;9.99;78.08
30021;BME280;16861;52.294;7.760;2023-02-22T07:21:05;99553.59;;;9.98;78.01
30021;BME280;16861;52.294;7.760;2023-02-22T07:23:31;99546.56;;;9.99;78.11
30021;BME280;16861;52.294;7.760;2023-02-22T07:26:02;99549.28;;;9.97;77.62
30021;BME280;16861;52.294;7.760;2023-02-22T07:28:29;99555.28;;;9.99;78.14
30021;BME280;16861;52.294;7.760;2023-02-22T07:30:55;99552.66;;;9.99;78.06
30021;BME280;16861;52.294;7.760;2023-02-22T07:33:22;99546.56;;;9.99;77.92
30021;BME280;16861;52.294;7.760;2023-02-22T07:35:49;99556.22;;;9.98;78.02
30021;BME280;16861;52.294;7.760;2023-02-22T07:38:18;99544.03;;;9.97;77.84
30021;BME280;16861;52.294;7.760;2023-02-22T07:40:45;99552.66;;;9.99;78.39
30021;BME280;16861;52.294;7.760;2023-02-22T07:45:41;99542.16;;;9.99;78.24
30021;BME280;16861;52.294;7.760;2023-02-22T07:48:09;99545.63;;;10.00;78.30
30021;BME280;16861;52.294;7.760;2023-02-22T07:50:35;99545.53;;;10.01;78.54
30021;BME280;16861;52.294;7.760;2023-02-22T07:53:04;99547.22;;;10.02;78.48
30021;BME280;16861;52.294;7.760;2023-02-22T07:55:33;99540.94;;;10.05;78.42
30021;BME280;16861;52.294;7.760;2023-02-22T07:58:03;99540.84;;;10.07;78.60
30021;BME280;16861;52.294;7.760;2023-02-22T08:00:32;99537.19;;;10.09;78.59
30021;BME280;16861;52.294;7.760;2023-02-22T08:03:01;99543.97;;;10.13;78.88
30021;BME280;16861;52.294;7.760;2023-02-22T08:05:28;99537.69;;;10.16;79.11
30021;BME280;16861;52.294;7.760;2023-02-22T08:07:55;99534.78;;;10.21;79.01
30021;BME280;16861;52.294;7.760;2023-02-22T08:10:23;99535.44;;;10.24;79.15
30021;BME280;16861;52.294;7.760;2023-02-22T08:12:50;99537.06;;;10.27;79.02
30021;BME280;16861;52.294;7.760;2023-02-22T08:15:21;99528.03;;;10.31;78.87
30021;BME280;16861;52.294;7.760;2023-02-22T08:17:50;99525.16;;;10.36;79.17
30021;BME280;16861;52.294;7.760;2023-02-22T08:20:16;99521.41;;;10.40;79.03
30021;BME280;16861;52.294;7.760;2023-02-22T08:22:43;99526.44;;;10.43;79.14
30021;BME280;16861;52.294;7.760;2023-02-22T08:25:11;99524.44;;;10.48;79.30
30021;BME280;16861;52.294;7.760;2023-02-22T08:27:38;99522.38;;;10.53;79.32
30021;BME280;16861;52.294;7.760;2023-02-22T08:30:05;99520.31;;;10.59;79.43
30021;BME280;16861;52.294;7.760;2023-02-22T08:32:33;99520.03;;;10.63;79.54
30021;BME280;16861;52.294;7.760;2023-02-22T08:35:01;99519.66;;;10.69;79.66
30021;BME280;16861;52.294;7.760;2023-02-22T08:37:28;99514.84;;;10.76;79.63
30021;BME280;16861;52.294;7.760;2023-02-22T08:39:54;99515.41;;;10.81;79.61
30021;BME280;16861;52.294;7.760;2023-02-22T08:42:21;99520.31;;;10.88;79.70
30021;BME280;16861;52.294;7.760;2023-02-22T08:44:48;99512.88;;;10.94;79.49
30021;BME280;16861;52.294;7.760;2023-02-22T08:47:14;99513.31;;;11.01;79.45
30021;BME280;16861;52.294;7.760;2023-02-22T08:49:41;99515.56;;;11.07;79.48
30021;BME280;16861;52.294;7.760;2023-02-22T08:52:07;99509.84;;;11.15;79.49
30021;BME280;16861;52.294;7.760;2023-02-22T08:54:34;99514.78;;;11.20;79.27
30021;BME280;16861;52.294;7.760;2023-02-22T08:57:01;99514.41;;;11.26;79.05
30021;BME280;16861;52.294;7.760;2023-02-22T08:59:27;99508.00;;;11.30;78.98
30021;BME280;16861;52.294;7.760;2023-02-22T09:01:54;99520.88;;;11.35;78.89
30021;BME280;16861;52.294;7.760;2023-02-22T09:04:20;99512.78;;;11.38;78.88
30021;BME280;16861;52.294;7.760;2023-02-22T09:06:47;99508.03;;;11.43;78.67
30021;BME280;16861;52.294;7.760;2023-02-22T09:09:18;99508.69;;;11.47;78.86
30021;BME280;16861;52.294;7.760;2023-02-22T09:11:47;99505.84;;;11.50;78.79
30021;BME280;16861;52.294;7.760;2023-02-22T09:14:14;99495.84;;;11.55;79.10
30021;BME280;16861;52.294;7.760;2023-02-22T09:16:43;99501.66;;;11.60;78.75
30021;BME280;16861;52.294;7.760;2023-02-22T09:19:10;99489.88;;;11.66;78.92
30021;BME280;16861;52.294;7.760;2023-02-22T09:21:38;99496.53;;;11.72;78.92
30021;BME280;16861;52.294;7.760;2023-02-22T09:24:06;99490.03;;;11.78;78.90
30021;BME280;16861;52.294;7.760;2023-02-22T09:26:37;99490.56;;;11.83;78.71
30021;BME280;16861;52.294;7.760;2023-02-22T09:29:08;99485.81;;;11.88;78.04
30021;BME280;16861;52.294;7.760;2023-02-22T09:31:38;99486.25;;;11.95;78.55
30021;BME280;16861;52.294;7.760;2023-02-22T09:34:07;99481.41;;;12.02;78.68
30021;BME280;16861;52.294;7.760;2023-02-22T09:36:42;99478.38;;;12.08;78.78
30021;BME280;16861;52.294;7.760;2023-02-22T09:39:12;99477.84;;;12.16;78.56
30021;BME280;16861;52.294;7.760;2023-02-22T09:46:46;99473.94;;;12.34;78.46
30021;BME280;16861;52.294;7.760;2023-02-22T09:52:12;99476.91;;;12.43;76.31
30021;BME280;16861;52.294;7.760;2023-02-22T09:54:45;99480.59;;;12.53;77.29
30021;BME280;16861;52.294;7.760;2023-02-22T09:57:26;99482.09;;;12.57;76.75
30021;BME280;16861;52.294;7.760;2023-02-22T10:00:11;99480.16;;;12.59;76.36
30021;BME280;16861;52.294;7.760;2023-02-22T10:02:51;99484.06;;;12.67;76.71
30021;BME280;16861;52.294;7.760;2023-02-22T10:05:26;99481.09;;;12.71;76.88
30021;BME280;16861;52.294;7.760;2023-02-22T10:07:59;99477.19;;;12.77;75.72
30021;BME280;16861;52.294;7.760;2023-02-22T10:10:34;99483.94;;;12.81;75.96
30021;BME280;16861;52.294;7.760;2023-02-22T10:16:15;99485.09;;;12.77;73.92
30021;BME280;16861;52.294;7.760;2023-02-22T10:19:05;99483.63;;;12.73;71.10
30021;BME280;16861;52.294;7.760;2023-02-22T10:27:16;99483.25;;;12.53;73.67
30021;BME280;16861;52.294;7.760;2023-02-22T10:29:55;99474.06;;;12.46;73.68
30021;BME280;16861;52.294;7.760;2023-02-22T10:32:31;99474.50;;;12.40;74.22
30021;BME280;16861;52.294;7.760;2023-02-22T10:35:02;99471.22;;;12.36;75.39
30021;BME280;16861;52.294;7.760;2023-02-22T10:37:32;99459.06;;;12.33;75.95
30021;BME280;16861;52.294;7.760;2023-02-22T10:42:42;99465.63;;;12.41;77.55
30021;BME280;16861;52.294;7.760;2023-02-22T10:45:30;99466.34;;;12.43;75.58
30021;BME280;16861;52.294;7.760;2023-02-22T10:48:03;99464.78;;;12.53;76.52
30021;BME280;16861;52.294;7.760;2023-02-22T10:50:36;99466.97;;;12.59;76.64
30021;BME280;16861;52.294;7.760;2023-02-22T10:53:03;99459.47;;;12.66;76.67
30021;BME280;16861;52.294;7.760;2023-02-22T10:55:30;99458.38;;;12.69;76.16
30021;BME280;16861;52.294;7.760;2023-02-22T10:58:03;99451.22;;;12.71;75.29
30021;BME280;16861;52.294;7.760;2023-02-22T11:00:32;99456.06;;;12.77;76.64
30021;BME280;16861;52.294;7.760;2023-02-22T11:03:15;99447.56;;;12.85;76.70
30021;BME280;16861;52.294;7.760;2023-02-22T11:05:43;99449.34;;;12.97;77.38
30021;BME280;16861;52.294;7.760;2023-02-22T11:08:27;99447.84;;;13.06;75.53
30021;BME280;16861;52.294;7.760;2023-02-22T11:14:40;99451.91;;;13.48;78.15
30021;BME280;16861;52.294;7.760;2023-02-22T11:17:09;99442.09;;;13.61;77.28
30021;BME280;16861;52.294;7.760;2023-02-22T11:19:46;99439.28;;;13.76;75.71
30021;BME280;16861;52.294;7.760;2023-02-22T11:22:20;99437.16;;;13.92;75.61
30021;BME280;16861;52.294;7.760;2023-02-22T11:24:51;99434.16;;;14.09;76.45
30021;BME280;16861;52.294;7.760;2023-02-22T11:27:32;99433.06;;;14.23;74.67
30021;BME280;16861;52.294;7.760;2023-02-22T11:32:45;99422.59;;;14.55;75.70
30021;BME280;16861;52.294;7.760;2023-02-22T11:35:47;99422.03;;;14.63;73.07
30021;BME280;16861;52.294;7.760;2023-02-22T11:43:44;99410.19;;;15.02;74.20
30021;BME280;16861;52.294;7.760;2023-02-22T11:46:24;99399.19;;;15.06;71.65
30021;BME280;16861;52.294;7.760;2023-02-22T11:49:08;99404.47;;;15.18;70.74
30021;BME280;16861;52.294;7.760;2023-02-22T11:54:30;99402.72;;;15.28;69.08
30021;BME280;16861;52.294;7.760;2023-02-22T12:08:01;99393.69;;;15.52;69.80
30021;BME280;16861;52.294;7.760;2023-02-22T12:13:37;99388.31;;;15.85;70.75
30021;BME280;16861;52.294;7.760;2023-02-22T12:21:29;99386.06;;;16.33;69.98
30021;BME280;16861;52.294;7.760;2023-02-22T12:24:08;99379.66;;;16.45;70.43
30021;BME280;16861;52.294;7.760;2023-02-22T12:26:41;99376.63;;;16.60;70.67
30021;BME280;16861;52.294;7.760;2023-02-22T12:32:11;99372.53;;;17.06;69.74
30021;BME280;16861;52.294;7.760;2023-02-22T12:34:42;99370.41;;;17.40;71.38
30021;BME280;16861;52.294;7.760;2023-02-22T12:37:27;99364.75;;;17.73;66.55
30021;BME280;16861;52.294;7.760;2023-02-22T12:42:51;99360.69;;;18.26;62.85
30021;BME280;16861;52.294;7.760;2023-02-22T12:45:34;99357.63;;;18.49;62.64
30021;BME280;16861;52.294;7.760;2023-02-22T12:51:18;99357.69;;;18.85;61.71
30021;BME280;16861;52.294;7.760;2023-02-22T12:56:47;99352.97;;;19.16;61.26
30021;BME280;16861;52.294;7.760;2023-02-22T12:59:24;99352.31;;;19.32;61.88
30021;BME280;16861;52.294;7.760;2023-02-22T13:01:57;99344.34;;;19.40;59.50
30021;BME280;16861;52.294;7.760;2023-02-22T13:04:25;99359.88;;;19.45;61.24
30021;BME280;16861;52.294;7.760;2023-02-22T13:20:25;99342.81;;;18.65;58.67
30021;BME280;16861;52.294;7.760;2023-02-22T13:26:27;99338.53;;;18.54;58.69
30021;BME280;16861;52.294;7.760;2023-02-22T13:29:07;99341.34;;;18.52;58.71
30021;BME280;16861;52.294;7.760;2023-02-22T13:32:44;99338.16;;;18.48;58.51
30021;BME280;16861;52.294;7.760;2023-02-22T13:37:52;99336.44;;;18.29;57.96
30021;BME280;16861;52.294;7.760;2023-02-22T13:48:50;99339.94;;;17.82;60.74
30021;BME280;16861;52.294;7.760;2023-02-22T13:51:49;99331.03;;;17.63;58.69
30021;BME280;16861;52.294;7.760;2023-02-22T13:54:21;99330.63;;;17.58;58.92
30021;BME280;16861;52.294;7.760;2023-02-22T13:56:51;99330.50;;;17.50;60.71
30021;BME280;16861;52.294;7.760;2023-02-22T13:59:32;99323.53;;;17.39;59.30
30021;BME280;16861;52.294;7.760;2023-02-22T14:02:55;99318.75;;;17.32;58.84
30021;BME280;16861;52.294;7.760;2023-02-22T14:16:31;99325.19;;;17.30;59.85
30021;BME280;16861;52.294;7.760;2023-02-22T14:21:34;99319.59;;;17.33;62.22
30021;BME280;16861;52.294;7.760;2023-02-22T14:24:08;99320.47;;;17.34;59.53
30021;BME280;16861;52.294;7.760;2023-02-22T14:26:39;99324.50;;;17.38;61.60
30021;BME280;16861;52.294;7.760;2023-02-22T14:34:20;99317.34;;;17.38;59.72
30021;BME280;16861;52.294;7.760;2023-02-22T14:39:37;99316.53;;;17.38;58.84
30021;BME280;16861;52.294;7.760;2023-02-22T14:42:10;99306.44;;;17.41;60.33
30021;BME280;16861;52.294;7.760;2023-02-22T14:47:49;99306.03;;;17.36;59.09
30021;BME280;16861;52.294;7.760;2023-02-22T14:50:36;99315.00;;;17.35;58.99
30021;BME280;16861;52.294;7.760;2023-02-22T14:53:18;99310.38;;;17.27;58.22
30021;BME280;16861;52.294;7.760;2023-02-22T14:56:03;99308.69;;;17.16;57.49
30021;BME280;16861;52.294;7.760;2023-02-22T14:58:52;99303.66;;;17.03;57.47
30021;BME280;16861;52.294;7.760;2023-02-22T15:01:31;99302.78;;;16.93;58.55
30021;BME280;16861;52.294;7.760;2023-02-22T15:04:26;99304.75;;;16.81;58.73
30021;BME280;16861;52.294;7.760;2023-02-22T15:06:54;99304.75;;;16.71;59.58
30021;BME280;16861;52.294;7.760;2023-02-22T15:09:29;99309.09;;;16.62;58.97
30021;BME280;16861;52.294;7.760;2023-02-22T15:14:32;99310.59;;;16.35;60.00
30021;BME280;16861;52.294;7.760;2023-02-22T15:17:22;99314.72;;;16.18;59.56
30021;BME280;16861;52.294;7.760;2023-02-22T15:19:52;99302.81;;;16.12;61.70
30021;BME280;16861;52.294;7.760;2023-02-22T15:22:25;99303.63;;;16.03;60.33
30021;BME280;16861;52.294;7.760;2023-02-22T15:27:24;99304.53;;;15.92;62.01
30021;BME280;16861;52.294;7.760;2023-02-22T15:29:57;99313.03;;;15.86;60.79
30021;BME280;16861;52.294;7.760;2023-02-22T15:35:23;99304.91;;;15.77;61.62
30021;BME280;16861;52.294;7.760;2023-02-22T15:37:58;99308.25;;;15.80;62.82
30021;BME280;16861;52.294;7.760;2023-02-22T15:40:26;99307.84;;;15.84;63.34
30021;BME280;16861;52.294;7.760;2023-02-22T15:43:05;99307.53;;;15.77;61.98
30021;BME280;16861;52.294;7.760;2023-02-22T15:45:34;99305.88;;;15.76;63.45
30021;BME280;16861;52.294;7.760;2023-02-22T15:48:11;99305.44;;;15.71;61.62
30021;BME280;16861;52.294;7.760;2023-02-22T15:51:06;99310.56;;;15.63;60.88
30021;BME280;16861;52.294;7.760;2023-02-22T15:53:39;99312.22;;;15.64;62.61
30021;BME280;16861;52.294;7.760;2023-02-22T15:56:16;99307.72;;;15.55;61.37
30021;BME280;16861;52.294;7.760;2023-02-22T15:58:45;99315.22;;;15.49;62.40
30021;BME280;16861;52.294;7.760;2023-02-22T16:01:20;99308.19;;;15.39;60.61